sensor_id;sensor_type;location;lat;lon;timestamp;pressure;altitude;pressure_sealevel;temperature;humidity
24892;BME280;12954;50.688;10.908;2023-02-13T00:01:43;97622.47;;;2.11;65.04
24892;BME280;12954;50.688;10.908;2023-02-13T00:04:12;97620.69;;;2.03;65.35
24892;BME280;12954;50.688;10.908;2023-02-13T00:06:40;97586.19;;;1.79;65.53
24892;BME280;12954;50.688;10.908;2023-02-13T00:09:10;97615.78;;;1.92;65.76
24892;BME280;12954;50.688;10.908;2023-02-13T00:11:38;97585.91;;;1.74;66.18
24892;BME280;12954;50.688;10.908;2023-02-13T00:14:07;97616.63;;;1.93;66.18
24892;BME280;12954;50.688;10.908;2023-02-13T00:16:35;97584.09;;;1.75;66.05
24892;BME280;12954;50.688;10.908;2023-02-13T00:19:04;97588.72;;;1.81;66.41
24892;BME280;12954;50.688;10.908;2023-02-13T00:21:32;97600.44;;;1.94;66.47
24892;BME280;12954;50.688;10.908;2023-02-13T00:24:01;97604.44;;;1.98;66.50
24892;BME280;12954;50.688;10.908;2023-02-13T00:26:31;97602.06;;;2.03;66.42
24892;BME280;12954;50.688;10.908;2023-02-13T00:28:59;97596.19;;;2.08;66.28
24892;BME280;12954;50.688;10.908;2023-02-13T00:31:27;97319.41;;;0.34;66.17
24892;BME280;12954;50.688;10.908;2023-02-13T00:33:56;97550.97;;;1.77;66.39
24892;BME280;12954;50.688;10.908;2023-02-13T00:36:25;97580.22;;;1.85;66.05
24892;BME280;12954;50.688;10.908;2023-02-13T00:38:53;97599.75;;;2.00;66.49
24892;BME280;12954;50.688;10.908;2023-02-13T00:41:22;97604.78;;;1.95;66.63
24892;BME280;12954;50.688;10.908;2023-02-13T00:43:53;97579.88;;;1.80;66.48
24892;BME280;12954;50.688;10.908;2023-02-13T00:46:21;97594.84;;;1.89;66.73
24892;BME280;12954;50.688;10.908;2023-02-13T00:48:50;97599.13;;;1.90;66.55
24892;BME280;12954;50.688;10.908;2023-02-13T00:51:18;97593.81;;;1.90;66.45
24892;BME280;12954;50.688;10.908;2023-02-13T00:53:47;97593.81;;;1.90;66.43
24892;BME280;12954;50.688;10.908;2023-02-13T00:56:15;97603.16;;;1.86;66.45
24892;BME280;12954;50.688;10.908;2023-02-13T00:58:44;97602.34;;;1.86;66.76
24892;BME280;12954;50.688;10.908;2023-02-13T01:01:14;97598.50;;;1.88;66.43
24892;BME280;12954;50.688;10.908;2023-02-13T01:03:42;97571.78;;;1.74;66.45
24892;BME280;12954;50.688;10.908;2023-02-13T01:06:11;97606.66;;;1.87;66.15
24892;BME280;12954;50.688;10.908;2023-02-13T01:08:39;97603.50;;;1.83;66.24
24892;BME280;12954;50.688;10.908;2023-02-13T01:11:08;97601.19;;;1.80;66.40
24892;BME280;12954;50.688;10.908;2023-02-13T01:13:37;97600.03;;;1.75;66.55
24892;BME280;12954;50.688;10.908;2023-02-13T01:16:05;97594.88;;;1.73;66.50
24892;BME280;12954;50.688;10.908;2023-02-13T01:18:36;97598.59;;;1.64;66.56
24892;BME280;12954;50.688;10.908;2023-02-13T01:21:07;97598.59;;;1.64;66.64
24892;BME280;12954;50.688;10.908;2023-02-13T01:23:36;97578.06;;;1.50;66.51
24892;BME280;12954;50.688;10.908;2023-02-13T01:26:06;97603.75;;;1.65;66.29
24892;BME280;12954;50.688;10.908;2023-02-13T01:28:35;97598.59;;;1.64;66.32
24892;BME280;12954;50.688;10.908;2023-02-13T01:31:04;97602.28;;;1.63;66.24
24892;BME280;12954;50.688;10.908;2023-02-13T01:33:32;97602.63;;;1.60;66.23
24892;BME280;12954;50.688;10.908;2023-02-13T01:36:07;97607.44;;;1.56;66.14
24892;BME280;12954;50.688;10.908;2023-02-13T01:38:36;97607.41;;;1.34;66.26
24892;BME280;12954;50.688;10.908;2023-02-13T01:41:05;97607.16;;;1.43;66.45
24892;BME280;12954;50.688;10.908;2023-02-13T01:43:48;97599.53;;;1.40;66.36
24892;BME280;12954;50.688;10.908;2023-02-13T01:46:21;97596.06;;;1.32;66.37
24892;BME280;12954;50.688;10.908;2023-02-13T01:48:52;97593.75;;;1.29;66.72
24892;BME280;12954;50.688;10.908;2023-02-13T01:51:25;97592.97;;;1.28;66.47
24892;BME280;12954;50.688;10.908;2023-02-13T01:53:59;97595.44;;;1.30;66.87
24892;BME280;12954;50.688;10.908;2023-02-13T01:56:32;97588.09;;;1.32;66.87
24892;BME280;12954;50.688;10.908;2023-02-13T01:59:08;97591.44;;;1.34;66.79
24892;BME280;12954;50.688;10.908;2023-02-13T02:01:37;97593.41;;;1.32;66.52
24892;BME280;12954;50.688;10.908;2023-02-13T02:04:09;97569.09;;;1.12;66.60
24892;BME280;12954;50.688;10.908;2023-02-13T02:06:43;97592.13;;;1.28;66.54
24892;BME280;12954;50.688;10.908;2023-02-13T02:09:15;97578.72;;;1.13;66.31
24892;BME280;12954;50.688;10.908;2023-02-13T02:11:50;97589.50;;;1.12;66.74
24892;BME280;12954;50.688;10.908;2023-02-13T02:14:20;97581.03;;;1.08;66.63
24892;BME280;12954;50.688;10.908;2023-02-13T02:16:48;97598.78;;;1.24;66.62
24892;BME280;12954;50.688;10.908;2023-02-13T02:19:27;97598.78;;;1.24;66.59
24892;BME280;12954;50.688;10.908;2023-02-13T02:25:33;97598.09;;;1.30;66.40
24892;BME280;12954;50.688;10.908;2023-02-13T02:28:24;97608.72;;;1.30;66.38
24892;BME280;12954;50.688;10.908;2023-02-13T02:31:26;97602.06;;;1.26;66.23
24892;BME280;12954;50.688;10.908;2023-02-13T02:34:14;97565.66;;;0.95;66.39
24892;BME280;12954;50.688;10.908;2023-02-13T02:37:00;97602.31;;;1.16;66.70
24892;BME280;12954;50.688;10.908;2023-02-13T02:39:56;97595.16;;;1.17;66.69
24892;BME280;12954;50.688;10.908;2023-02-13T02:42:39;97600.44;;;1.25;66.38
24892;BME280;12954;50.688;10.908;2023-02-13T02:45:15;97599.75;;;1.23;66.33
24892;BME280;12954;50.688;10.908;2023-02-13T02:47:51;97600.09;;;1.20;66.38
24892;BME280;12954;50.688;10.908;2023-02-13T02:50:42;97593.84;;;1.13;66.50
24892;BME280;12954;50.688;10.908;2023-02-13T02:53:22;97598.81;;;1.16;66.38
24892;BME280;12954;50.688;10.908;2023-02-13T02:55:57;97595.50;;;1.14;66.37
24892;BME280;12954;50.688;10.908;2023-02-13T02:58:32;97589.50;;;1.12;66.51
24892;BME280;12954;50.688;10.908;2023-02-13T03:01:22;97593.03;;;1.04;66.60
24892;BME280;12954;50.688;10.908;2023-02-13T03:04:15;97574.13;;;0.91;66.68
24892;BME280;12954;50.688;10.908;2023-02-13T03:07:18;97574.13;;;0.91;66.94
24892;BME280;12954;50.688;10.908;2023-02-13T03:09:52;97582.91;;;0.99;66.91
24892;BME280;12954;50.688;10.908;2023-02-13T03:12:44;97576.59;;;1.00;66.83
24892;BME280;12954;50.688;10.908;2023-02-13T03:15:31;97579.59;;;0.97;67.00
24892;BME280;12954;50.688;10.908;2023-02-13T03:18:01;97577.13;;;0.96;66.69
24892;BME280;12954;50.688;10.908;2023-02-13T03:20:51;97568.47;;;0.94;66.40
24892;BME280;12954;50.688;10.908;2023-02-13T03:23:46;97580.91;;;1.01;66.37
24892;BME280;12954;50.688;10.908;2023-02-13T03:26:31;97584.22;;;1.03;66.38
24892;BME280;12954;50.688;10.908;2023-02-13T03:29:34;97569.59;;;1.07;66.23
24892;BME280;12954;50.688;10.908;2023-02-13T03:32:40;97581.88;;;1.08;66.36
24892;BME280;12954;50.688;10.908;2023-02-13T03:35:20;97574.25;;;1.14;66.26
24892;BME280;12954;50.688;10.908;2023-02-13T03:38:10;97570.06;;;1.11;66.26
24892;BME280;12954;50.688;10.908;2023-02-13T03:40:47;97526.72;;;0.72;66.16
24892;BME280;12954;50.688;10.908;2023-02-13T03:43:34;97571.09;;;1.10;66.35
24892;BME280;12954;50.688;10.908;2023-02-13T03:46:08;97568.78;;;1.07;66.25
24892;BME280;12954;50.688;10.908;2023-02-13T03:48:39;97567.94;;;1.06;66.22
24892;BME280;12954;50.688;10.908;2023-02-13T03:51:29;97567.28;;;1.04;66.21
24892;BME280;12954;50.688;10.908;2023-02-13T03:54:01;97570.63;;;0.98;66.33
24892;BME280;12954;50.688;10.908;2023-02-13T03:56:34;97561.97;;;0.96;66.30
24892;BME280;12954;50.688;10.908;2023-02-13T03:59:28;97566.53;;;0.80;66.13
24892;BME280;12954;50.688;10.908;2023-02-13T04:02:01;97566.16;;;0.91;65.77
24892;BME280;12954;50.688;10.908;2023-02-13T04:04:39;97560.72;;;0.84;65.84
24892;BME280;12954;50.688;10.908;2023-02-13T04:07:12;97565.69;;;0.79;65.92
24892;BME280;12954;50.688;10.908;2023-02-13T04:09:57;97558.91;;;0.69;65.87
24892;BME280;12954;50.688;10.908;2023-02-13T04:12:36;97559.06;;;0.75;65.50
24892;BME280;12954;50.688;10.908;2023-02-13T04:15:11;97509.50;;;0.35;65.69
24892;BME280;12954;50.688;10.908;2023-02-13T04:17:44;97556.28;;;0.61;65.91
24892;BME280;12954;50.688;10.908;2023-02-13T04:20:14;97546.47;;;0.61;65.85
24892;BME280;12954;50.688;10.908;2023-02-13T04:22:44;97546.81;;;0.58;65.86
24892;BME280;12954;50.688;10.908;2023-02-13T04:25:14;97547.47;;;0.60;66.04
24892;BME280;12954;50.688;10.908;2023-02-13T04:27:45;97538.84;;;0.50;65.89
24892;BME280;12954;50.688;10.908;2023-02-13T04:30:14;97550.13;;;0.60;65.89
24892;BME280;12954;50.688;10.908;2023-02-13T04:32:43;97507.38;;;0.31;65.85
24892;BME280;12954;50.688;10.908;2023-02-13T04:35:11;97557.59;;;0.57;65.98
24892;BME280;12954;50.688;10.908;2023-02-13T04:37:40;97524.78;;;0.33;66.18
24892;BME280;12954;50.688;10.908;2023-02-13T04:40:10;97553.28;;;0.56;66.28
24892;BME280;12954;50.688;10.908;2023-02-13T04:42:38;97555.09;;;0.55;66.28
24892;BME280;12954;50.688;10.908;2023-02-13T04:45:09;97548.81;;;0.56;66.19
24892;BME280;12954;50.688;10.908;2023-02-13T04:47:37;97546.16;;;0.56;66.11
24892;BME280;12954;50.688;10.908;2023-02-13T04:50:06;97552.28;;;0.57;66.07
24892;BME280;12954;50.688;10.908;2023-02-13T04:52:35;97557.28;;;0.60;66.05
24892;BME280;12954;50.688;10.908;2023-02-13T04:55:04;97561.09;;;0.57;65.91
24892;BME280;12954;50.688;10.908;2023-02-13T04:57:33;97559.75;;;0.53;66.05
24892;BME280;12954;50.688;10.908;2023-02-13T05:00:01;97552.81;;;0.52;65.95
24892;BME280;12954;50.688;10.908;2023-02-13T05:02:32;97537.41;;;0.39;66.10
24892;BME280;12954;50.688;10.908;2023-02-13T05:05:01;97495.78;;;0.16;66.01
24892;BME280;12954;50.688;10.908;2023-02-13T05:07:29;97555.47;;;0.52;66.26
24892;BME280;12954;50.688;10.908;2023-02-13T05:09:58;97545.84;;;0.51;66.16
24892;BME280;12954;50.688;10.908;2023-02-13T05:12:26;97535.88;;;0.45;65.99
24892;BME280;12954;50.688;10.908;2023-02-13T05:14:55;97550.97;;;0.52;66.19
24892;BME280;12954;50.688;10.908;2023-02-13T05:17:24;97518.97;;;0.30;66.29
24892;BME280;12954;50.688;10.908;2023-02-13T05:19:55;97531.59;;;0.36;66.40
24892;BME280;12954;50.688;10.908;2023-02-13T05:22:25;97504.25;;;0.19;66.33
24892;BME280;12954;50.688;10.908;2023-02-13T05:25:10;97556.47;;;0.43;66.54
24892;BME280;12954;50.688;10.908;2023-02-13T05:27:39;97541.22;;;0.37;66.37
24892;BME280;12954;50.688;10.908;2023-02-13T05:30:08;97551.47;;;0.48;66.53
24892;BME280;12954;50.688;10.908;2023-02-13T05:32:37;97554.13;;;0.56;66.04
24892;BME280;12954;50.688;10.908;2023-02-13T05:35:07;97546.19;;;0.48;66.36
24892;BME280;12954;50.688;10.908;2023-02-13T05:37:35;97536.56;;;0.39;66.20
24892;BME280;12954;50.688;10.908;2023-02-13T05:40:05;97553.16;;;0.49;66.17
24892;BME280;12954;50.688;10.908;2023-02-13T05:42:34;97556.28;;;0.44;66.69
24892;BME280;12954;50.688;10.908;2023-02-13T05:45:02;97551.81;;;0.45;66.38
24892;BME280;12954;50.688;10.908;2023-02-13T05:47:31;97560.13;;;0.42;66.49
24892;BME280;12954;50.688;10.908;2023-02-13T05:49:59;97558.97;;;0.36;66.30
24892;BME280;12954;50.688;10.908;2023-02-13T05:52:29;97545.72;;;0.28;66.49
24892;BME280;12954;50.688;10.908;2023-02-13T05:54:57;97553.81;;;0.27;66.26
24892;BME280;12954;50.688;10.908;2023-02-13T05:57:26;97539.56;;;0.20;66.48
24892;BME280;12954;50.688;10.908;2023-02-13T05:59:55;97528.94;;;0.12;66.69
24892;BME280;12954;50.688;10.908;2023-02-13T06:02:24;97535.75;;;0.14;66.75
24892;BME280;12954;50.688;10.908;2023-02-13T06:04:52;97560.13;;;0.26;66.62
24892;BME280;12954;50.688;10.908;2023-02-13T06:07:20;97563.94;;;0.23;66.66
24892;BME280;12954;50.688;10.908;2023-02-13T06:09:50;97562.44;;;0.21;66.76
24892;BME280;12954;50.688;10.908;2023-02-13T06:12:19;97561.47;;;0.22;66.93
24892;BME280;12954;50.688;10.908;2023-02-13T06:14:47;97526.63;;;0.01;66.66
24892;BME280;12954;50.688;10.908;2023-02-13T06:17:16;97509.06;;;-0.09;66.63
24892;BME280;12954;50.688;10.908;2023-02-13T06:19:45;97526.81;;;0.07;66.40
24892;BME280;12954;50.688;10.908;2023-02-13T06:22:13;97483.03;;;-0.29;66.63
24892;BME280;12954;50.688;10.908;2023-02-13T06:24:42;97548.88;;;0.08;67.08
24892;BME280;12954;50.688;10.908;2023-02-13T06:27:11;97528.97;;;-0.05;67.01
24892;BME280;12954;50.688;10.908;2023-02-13T06:29:40;97555.13;;;0.23;67.24
24892;BME280;12954;50.688;10.908;2023-02-13T06:32:08;97543.22;;;0.19;67.25
24892;BME280;12954;50.688;10.908;2023-02-13T06:34:37;97551.81;;;0.29;67.70
24892;BME280;12954;50.688;10.908;2023-02-13T06:37:05;97486.50;;;-0.05;68.14
24892;BME280;12954;50.688;10.908;2023-02-13T06:39:34;97519.16;;;0.28;68.40
24892;BME280;12954;50.688;10.908;2023-02-13T06:42:02;97553.44;;;0.62;68.56
24892;BME280;12954;50.688;10.908;2023-02-13T06:44:32;97558.25;;;0.75;68.92
24892;BME280;12954;50.688;10.908;2023-02-13T06:47:00;97549.06;;;0.85;68.89
24892;BME280;12954;50.688;10.908;2023-02-13T06:49:29;97550.84;;;1.01;68.96
24892;BME280;12954;50.688;10.908;2023-02-13T06:51:57;97552.00;;;1.06;68.86
24892;BME280;12954;50.688;10.908;2023-02-13T06:54:26;97502.41;;;0.83;69.07
24892;BME280;12954;50.688;10.908;2023-02-13T06:57:12;97568.50;;;1.33;69.03
24892;BME280;12954;50.688;10.908;2023-02-13T06:59:42;97563.81;;;1.43;69.24
24892;BME280;12954;50.688;10.908;2023-02-13T07:02:11;97503.50;;;1.04;68.97
24892;BME280;12954;50.688;10.908;2023-02-13T07:04:39;97567.00;;;1.61;69.12
24892;BME280;12954;50.688;10.908;2023-02-13T07:07:08;97561.69;;;1.61;69.19
24892;BME280;12954;50.688;10.908;2023-02-13T07:09:36;97577.56;;;1.77;69.12
24892;BME280;12954;50.688;10.908;2023-02-13T07:12:06;97579.34;;;1.85;69.34
24892;BME280;12954;50.688;10.908;2023-02-13T07:14:35;97579.50;;;1.91;69.18
24892;BME280;12954;50.688;10.908;2023-02-13T07:17:05;97570.06;;;1.89;69.33
24892;BME280;12954;50.688;10.908;2023-02-13T07:19:34;97581.41;;;2.05;68.92
24892;BME280;12954;50.688;10.908;2023-02-13T07:22:02;97577.75;;;2.06;69.32
24892;BME280;12954;50.688;10.908;2023-02-13T07:24:31;97585.66;;;2.14;69.02
24892;BME280;12954;50.688;10.908;2023-02-13T07:27:01;97578.31;;;2.16;69.24
24892;BME280;12954;50.688;10.908;2023-02-13T07:29:30;97581.78;;;2.25;69.12
24892;BME280;12954;50.688;10.908;2023-02-13T07:31:58;97553.72;;;2.14;69.14
24892;BME280;12954;50.688;10.908;2023-02-13T07:34:29;97579.69;;;2.35;69.16
24892;BME280;12954;50.688;10.908;2023-02-13T07:36:57;97590.63;;;2.40;69.09
24892;BME280;12954;50.688;10.908;2023-02-13T07:39:26;97593.22;;;2.48;68.71
24892;BME280;12954;50.688;10.908;2023-02-13T07:41:54;97585.69;;;2.52;68.73
24892;BME280;12954;50.688;10.908;2023-02-13T07:44:23;97514.41;;;2.16;68.61
24892;BME280;12954;50.688;10.908;2023-02-13T07:46:51;97581.22;;;2.67;68.53
24892;BME280;12954;50.688;10.908;2023-02-13T07:49:20;97581.34;;;2.73;68.50
24892;BME280;12954;50.688;10.908;2023-02-13T07:51:50;97583.47;;;2.78;68.45
24892;BME280;12954;50.688;10.908;2023-02-13T07:54:18;97580.72;;;2.86;68.32
24892;BME280;12954;50.688;10.908;2023-02-13T07:56:47;97585.69;;;2.89;68.06
24892;BME280;12954;50.688;10.908;2023-02-13T07:59:15;97583.09;;;2.96;68.13
24892;BME280;12954;50.688;10.908;2023-02-13T08:01:43;97542.09;;;2.82;68.15
24892;BME280;12954;50.688;10.908;2023-02-13T08:04:12;97543.41;;;2.86;67.99
24892;BME280;12954;50.688;10.908;2023-02-13T08:06:41;97574.28;;;3.10;67.89
24892;BME280;12954;50.688;10.908;2023-02-13T08:09:17;97566.38;;;3.16;67.79
24892;BME280;12954;50.688;10.908;2023-02-13T08:12:07;97562.31;;;3.20;67.33
24892;BME280;12954;50.688;10.908;2023-02-13T08:14:37;97566.34;;;3.31;67.48
24892;BME280;12954;50.688;10.908;2023-02-13T08:17:05;97567.47;;;3.37;67.41
24892;BME280;12954;50.688;10.908;2023-02-13T08:19:34;97565.91;;;3.42;67.07
24892;BME280;12954;50.688;10.908;2023-02-13T08:22:02;97566.34;;;3.46;67.07
24892;BME280;12954;50.688;10.908;2023-02-13T08:24:33;97567.63;;;3.50;67.11
24892;BME280;12954;50.688;10.908;2023-02-13T08:27:01;97521.78;;;3.25;67.04
24892;BME280;12954;50.688;10.908;2023-02-13T08:29:29;97533.59;;;3.37;66.59
24892;BME280;12954;50.688;10.908;2023-02-13T08:31:58;97555.75;;;3.52;66.76
24892;BME280;12954;50.688;10.908;2023-02-13T08:34:26;97573.66;;;3.73;66.54
24892;BME280;12954;50.688;10.908;2023-02-13T08:36:55;97573.91;;;3.78;66.39
24892;BME280;12954;50.688;10.908;2023-02-13T08:39:23;97563.69;;;3.81;65.74
24892;BME280;12954;50.688;10.908;2023-02-13T08:41:53;97572.41;;;3.90;65.97
24892;BME280;12954;50.688;10.908;2023-02-13T08:44:22;97576.81;;;3.98;65.37
24892;BME280;12954;50.688;10.908;2023-02-13T08:46:51;97578.91;;;4.02;65.35
24892;BME280;12954;50.688;10.908;2023-02-13T08:49:19;97580.19;;;4.06;65.45
24892;BME280;12954;50.688;10.908;2023-02-13T08:51:49;97583.75;;;4.13;65.49
24892;BME280;12954;50.688;10.908;2023-02-13T08:54:17;97575.56;;;4.15;65.14
24892;BME280;12954;50.688;10.908;2023-02-13T08:56:46;97541.41;;;3.89;65.04
24892;BME280;12954;50.688;10.908;2023-02-13T08:59:16;97618.66;;;4.12;65.29
24892;BME280;12954;50.688;10.908;2023-02-13T09:01:45;97582.47;;;4.09;65.12
24892;BME280;12954;50.688;10.908;2023-02-13T09:04:13;97580.94;;;4.00;64.88
24892;BME280;12954;50.688;10.908;2023-02-13T09:06:43;97570.41;;;3.92;64.81
24892;BME280;12954;50.688;10.908;2023-02-13T09:09:12;97593.66;;;3.98;65.05
24892;BME280;12954;50.688;10.908;2023-02-13T09:11:41;97579.16;;;3.86;65.00
24892;BME280;12954;50.688;10.908;2023-02-13T09:14:10;97602.50;;;3.99;65.06
24892;BME280;12954;50.688;10.908;2023-02-13T09:16:39;97601.03;;;3.96;65.06
24892;BME280;12954;50.688;10.908;2023-02-13T09:19:08;97596.97;;;4.00;64.89
24892;BME280;12954;50.688;10.908;2023-02-13T09:21:36;97603.97;;;4.01;64.62
24892;BME280;12954;50.688;10.908;2023-02-13T09:24:06;97601.69;;;3.98;64.55
24892;BME280;12954;50.688;10.908;2023-02-13T09:26:35;97549.59;;;3.52;64.99
24892;BME280;12954;50.688;10.908;2023-02-13T09:29:03;97607.50;;;3.87;65.13
24892;BME280;12954;50.688;10.908;2023-02-13T09:31:32;97611.56;;;3.83;65.13
24892;BME280;12954;50.688;10.908;2023-02-13T09:34:02;97579.19;;;3.71;65.43
24892;BME280;12954;50.688;10.908;2023-02-13T09:36:30;97612.09;;;3.93;65.10
24892;BME280;12954;50.688;10.908;2023-02-13T09:38:59;97572.78;;;3.66;65.55
24892;BME280;12954;50.688;10.908;2023-02-13T09:41:30;97611.72;;;3.96;65.22
24892;BME280;12954;50.688;10.908;2023-02-13T09:44:01;97603.44;;;3.91;65.42
24892;BME280;12954;50.688;10.908;2023-02-13T09:46:33;97583.28;;;3.88;65.51
24892;BME280;12954;50.688;10.908;2023-02-13T09:49:06;97590.81;;;4.00;65.44
24892;BME280;12954;50.688;10.908;2023-02-13T09:51:35;97614.34;;;4.11;65.46
24892;BME280;12954;50.688;10.908;2023-02-13T09:54:05;97611.94;;;4.16;65.32
24892;BME280;12954;50.688;10.908;2023-02-13T09:56:39;97557.50;;;3.81;65.28
24892;BME280;12954;50.688;10.908;2023-02-13T09:59:23;97606.47;;;4.24;65.29
24892;BME280;12954;50.688;10.908;2023-02-13T10:02:00;97580.31;;;3.98;65.27
24892;BME280;12954;50.688;10.908;2023-02-13T10:04:40;97616.22;;;4.31;65.18
24892;BME280;12954;50.688;10.908;2023-02-13T10:07:18;97613.84;;;4.36;65.15
24892;BME280;12954;50.688;10.908;2023-02-13T10:09:54;97600.19;;;4.31;65.21
24892;BME280;12954;50.688;10.908;2023-02-13T10:12:47;97606.53;;;4.52;65.47
24892;BME280;12954;50.688;10.908;2023-02-13T10:15:29;97601.84;;;4.54;65.12
24892;BME280;12954;50.688;10.908;2023-02-13T10:18:02;97572.63;;;4.52;64.74
24892;BME280;12954;50.688;10.908;2023-02-13T10:20:36;97597.25;;;4.69;64.59
24892;BME280;12954;50.688;10.908;2023-02-13T10:23:17;97601.41;;;4.78;65.00
24892;BME280;12954;50.688;10.908;2023-02-13T10:25:52;97618.88;;;4.95;64.88
24892;BME280;12954;50.688;10.908;2023-02-13T10:28:32;97598.47;;;4.94;64.58
24892;BME280;12954;50.688;10.908;2023-02-13T10:31:04;97605.00;;;5.19;64.38
24892;BME280;12954;50.688;10.908;2023-02-13T10:33:40;97611.25;;;5.26;64.17
24892;BME280;12954;50.688;10.908;2023-02-13T10:36:16;97548.22;;;4.89;64.48
24892;BME280;12954;50.688;10.908;2023-02-13T10:38:55;97608.34;;;5.28;64.67
24892;BME280;12954;50.688;10.908;2023-02-13T10:41:28;97496.53;;;4.76;64.20
24892;BME280;12954;50.688;10.908;2023-02-13T10:44:16;97574.44;;;5.35;63.75
24892;BME280;12954;50.688;10.908;2023-02-13T10:46:56;97601.94;;;5.56;63.92
24892;BME280;12954;50.688;10.908;2023-02-13T10:49:38;97602.41;;;5.67;64.08
24892;BME280;12954;50.688;10.908;2023-02-13T10:52:15;97592.91;;;5.64;64.03
24892;BME280;12954;50.688;10.908;2023-02-13T10:54:50;97593.34;;;5.68;64.19
24892;BME280;12954;50.688;10.908;2023-02-13T10:57:27;97557.09;;;5.72;63.94
24892;BME280;12954;50.688;10.908;2023-02-13T11:00:06;97582.75;;;6.00;63.47
24892;BME280;12954;50.688;10.908;2023-02-13T11:02:37;97554.69;;;5.90;63.29
24892;BME280;12954;50.688;10.908;2023-02-13T11:05:15;97579.34;;;6.26;63.12
24892;BME280;12954;50.688;10.908;2023-02-13T11:07:47;97551.09;;;6.24;62.51
24892;BME280;12954;50.688;10.908;2023-02-13T11:10:17;97575.66;;;6.53;61.82
24892;BME280;12954;50.688;10.908;2023-02-13T11:12:47;97580.78;;;6.48;61.38
24892;BME280;12954;50.688;10.908;2023-02-13T11:15:22;97588.03;;;6.54;61.91
24892;BME280;12954;50.688;10.908;2023-02-13T11:17:53;97573.38;;;6.63;62.06
24892;BME280;12954;50.688;10.908;2023-02-13T11:20:29;97551.91;;;6.57;61.98
24892;BME280;12954;50.688;10.908;2023-02-13T11:23:17;97563.69;;;6.76;61.71
24892;BME280;12954;50.688;10.908;2023-02-13T11:25:56;97569.88;;;7.02;61.56
24892;BME280;12954;50.688;10.908;2023-02-13T11:28:26;97556.44;;;7.09;61.05
24892;BME280;12954;50.688;10.908;2023-02-13T11:31:10;97570.84;;;7.27;60.56
24892;BME280;12954;50.688;10.908;2023-02-13T11:33:39;97563.19;;;7.31;60.46
24892;BME280;12954;50.688;10.908;2023-02-13T11:36:09;97568.97;;;7.41;60.54
24892;BME280;12954;50.688;10.908;2023-02-13T11:38:42;97541.47;;;7.39;60.15
24892;BME280;12954;50.688;10.908;2023-02-13T11:41:12;97563.09;;;7.64;59.83
24892;BME280;12954;50.688;10.908;2023-02-13T11:43:45;97568.22;;;7.78;58.63
24892;BME280;12954;50.688;10.908;2023-02-13T11:46:17;97561.19;;;7.77;58.39
24892;BME280;12954;50.688;10.908;2023-02-13T11:48:58;97562.38;;;7.95;56.74
24892;BME280;12954;50.688;10.908;2023-02-13T11:51:38;97560.56;;;7.89;56.20
24892;BME280;12954;50.688;10.908;2023-02-13T11:54:22;97562.00;;;7.85;56.84
24892;BME280;12954;50.688;10.908;2023-02-13T11:56:51;97553.97;;;7.78;57.15
24892;BME280;12954;50.688;10.908;2023-02-13T11:59:38;97557.34;;;8.05;56.72
24892;BME280;12954;50.688;10.908;2023-02-13T12:02:16;97552.53;;;8.13;56.40
24892;BME280;12954;50.688;10.908;2023-02-13T12:04:46;97550.22;;;8.23;55.26
24892;BME280;12954;50.688;10.908;2023-02-13T12:07:20;97470.28;;;7.74;54.87
24892;BME280;12954;50.688;10.908;2023-02-13T12:09:56;97541.63;;;8.08;55.22
24892;BME280;12954;50.688;10.908;2023-02-13T12:12:38;97491.28;;;7.91;54.79
24892;BME280;12954;50.688;10.908;2023-02-13T12:15:16;97535.97;;;8.16;54.70
24892;BME280;12954;50.688;10.908;2023-02-13T12:17:53;97516.81;;;8.06;54.48
24892;BME280;12954;50.688;10.908;2023-02-13T12:20:24;97550.16;;;8.30;54.41
24892;BME280;12954;50.688;10.908;2023-02-13T12:23:01;97558.44;;;8.28;54.50
24892;BME280;12954;50.688;10.908;2023-02-13T12:26:08;97559.59;;;8.39;54.25
24892;BME280;12954;50.688;10.908;2023-02-13T12:28:51;97521.09;;;8.14;54.62
24892;BME280;12954;50.688;10.908;2023-02-13T12:31:37;97506.78;;;8.20;54.54
24892;BME280;12954;50.688;10.908;2023-02-13T12:37:17;97513.56;;;8.54;52.71
24892;BME280;12954;50.688;10.908;2023-02-13T12:40:01;97547.06;;;8.58;53.01
24892;BME280;12954;50.688;10.908;2023-02-13T12:42:48;97541.13;;;8.49;53.53
24892;BME280;12954;50.688;10.908;2023-02-13T12:45:27;97540.41;;;8.60;53.08
24892;BME280;12954;50.688;10.908;2023-02-13T12:48:09;97534.88;;;8.55;52.50
24892;BME280;12954;50.688;10.908;2023-02-13T12:50:47;97534.53;;;8.45;53.40
24892;BME280;12954;50.688;10.908;2023-02-13T12:53:48;97527.56;;;8.62;53.75
24892;BME280;12954;50.688;10.908;2023-02-13T12:56:36;97530.38;;;8.74;53.87
24892;BME280;12954;50.688;10.908;2023-02-13T12:59:16;97534.84;;;8.80;53.68
24892;BME280;12954;50.688;10.908;2023-02-13T13:02:12;97528.16;;;8.89;53.25
24892;BME280;12954;50.688;10.908;2023-02-13T13:04:54;97542.13;;;8.79;53.20
24892;BME280;12954;50.688;10.908;2023-02-13T13:07:42;97535.28;;;8.77;53.29
24892;BME280;12954;50.688;10.908;2023-02-13T13:10:40;97537.00;;;8.71;53.35
24892;BME280;12954;50.688;10.908;2023-02-13T13:13:18;97533.72;;;8.69;53.65
24892;BME280;12954;50.688;10.908;2023-02-13T13:15:56;97531.63;;;8.71;53.59
24892;BME280;12954;50.688;10.908;2023-02-13T13:18:37;97533.72;;;8.69;53.36
24892;BME280;12954;50.688;10.908;2023-02-13T13:21:15;97323.22;;;7.32;53.38
24892;BME280;12954;50.688;10.908;2023-02-13T13:23:50;97525.53;;;8.58;53.20
24892;BME280;12954;50.688;10.908;2023-02-13T13:26:24;97533.84;;;8.56;53.47
24892;BME280;12954;50.688;10.908;2023-02-13T13:28:58;97483.19;;;8.22;53.48
24892;BME280;12954;50.688;10.908;2023-02-13T13:31:33;97522.50;;;8.48;53.56
24892;BME280;12954;50.688;10.908;2023-02-13T13:34:05;97517.75;;;8.50;53.51
24892;BME280;12954;50.688;10.908;2023-02-13T13:36:43;97504.00;;;8.33;53.48
24892;BME280;12954;50.688;10.908;2023-02-13T13:39:22;97515.97;;;8.37;53.57
24892;BME280;12954;50.688;10.908;2023-02-13T13:42:00;97509.50;;;8.20;53.73